Portada
METAR-TAF:

METAR-TAF

Aeroports :

Bückeburg, Alemanya

latitud: 52-17N, longitud: 009-05E, altitud: 70 m

Observació

L'informe es va fer fa 14 minuts, a les 13:20 UTC
Vent 12 kt del Sud
Temperatura 28°C
Humitat 45%
Pressió 1009 hPa
Visibilitat: 4800 m

METAR: ETHB 201320Z AUTO 19012KT 4800 // ////// 28/15 Q1009 ///

Hora: 15:34 (13:34 UTC)

Pronòstic

L'informe es va fer fa 27 hores i 4 minuts, a les 10:30 UTC
Pronòstic vàlid del 19 a les 11 UTC al 19 a les 20 UTC
Vent 10 kt del Oest
Visibilitat: 1100 m
Núvols disperses a una alçada de 4000 ft

TAF: ETHB 191030Z 1911/1920 27010KT 9999 NSW SCT040 CANCEL 1100

Observacions i pronòstics meteorològics de més de 4000 aeroports (METAR i TAF).

Les estacions disponibles són els punts grocs i vermells al mapa.

Posi el ratolí al punt desitjat per veure el nom de l'estació.

Feu clic per veure les observacions i els pronòstics meteorològics.

Per canviar el mapa: feu clic els botons verds amb una creu de color negre per apropar; al botó verd amb un guió per allunyar la imatge; o en les fletxes verdes per a mapes adjacents.


METAR-TAF: